createdAt,value
2018-12-14T09:15:28.833Z,1.90
2018-12-14T09:18:20.495Z,1.90
2018-12-14T09:21:13.058Z,1.90
2018-12-14T09:24:08.319Z,1.90
2018-12-14T09:26:51.191Z,2.00
2018-12-14T09:29:30.312Z,2.00
2018-12-14T09:32:14.318Z,2.00
2018-12-14T09:40:33.977Z,2.10
2018-12-14T09:57:43.010Z,2.20
2018-12-14T10:06:08.291Z,2.20
2018-12-14T10:08:53.276Z,2.20
2018-12-14T10:11:39.881Z,2.20
2018-12-14T10:14:18.885Z,2.20
2018-12-14T10:17:05.120Z,2.20
2018-12-14T10:19:40.944Z,2.30
2018-12-14T10:22:13.631Z,2.30
2018-12-14T10:24:46.241Z,2.30
2018-12-14T10:27:17.156Z,2.20
2018-12-14T10:29:49.238Z,2.20
2018-12-14T10:32:21.399Z,2.20
2018-12-14T10:34:52.425Z,2.10
2018-12-14T10:37:23.817Z,2.00
2018-12-14T10:39:56.833Z,2.00
2018-12-14T10:42:29.704Z,2.00
2018-12-14T10:45:01.642Z,1.90
2018-12-14T10:47:36.492Z,1.90
2018-12-14T10:50:09.163Z,1.90
2018-12-14T10:52:43.145Z,1.90
2018-12-14T10:55:15.817Z,1.80
2018-12-14T10:57:46.733Z,1.80
2018-12-14T11:00:24.852Z,1.80
2018-12-14T11:02:59.323Z,1.80
2018-12-14T11:05:32.184Z,1.80
2018-12-14T11:08:05.506Z,1.80
2018-12-14T11:10:36.643Z,1.80
2018-12-14T11:13:09.343Z,1.80
2018-12-14T11:15:42.107Z,1.80
2018-12-14T11:18:15.125Z,1.90
2018-12-14T11:20:49.649Z,1.90
2018-12-14T11:23:21.860Z,1.90
2018-12-14T11:25:57.426Z,2.00
2018-12-14T11:28:32.117Z,2.00
2018-12-14T11:31:04.529Z,2.00
2018-12-14T11:33:38.541Z,2.10
2018-12-14T11:36:11.990Z,2.10
2018-12-14T11:38:46.434Z,2.20
2018-12-14T11:41:18.932Z,2.20
2018-12-14T11:43:53.206Z,2.30
2018-12-14T11:46:26.130Z,2.30
2018-12-14T11:48:59.067Z,2.30
2018-12-14T11:51:32.105Z,2.30
2018-12-14T11:54:04.769Z,2.30
2018-12-14T11:56:35.982Z,2.40
2018-12-14T11:59:07.118Z,2.30
2018-12-14T12:01:39.533Z,2.30
2018-12-14T12:04:13.770Z,2.30
2018-12-14T12:06:44.367Z,2.30
2018-12-14T12:09:18.743Z,2.20
2018-12-14T12:11:53.377Z,2.20
2018-12-14T12:14:27.042Z,2.20
2018-12-14T12:17:01.298Z,2.20
2018-12-14T12:19:34.210Z,2.20
2018-12-14T12:22:08.742Z,2.10
2018-12-14T12:24:41.687Z,2.10
2018-12-14T12:27:14.235Z,2.10
2018-12-14T12:29:48.832Z,2.10
2018-12-14T12:32:21.415Z,2.10
2018-12-14T12:34:54.318Z,2.00
2018-12-14T12:37:31.866Z,2.00
2018-12-14T12:40:16.180Z,1.90
2018-12-14T12:42:50.957Z,1.90
2018-12-14T12:45:26.854Z,1.80
2018-12-14T12:48:01.801Z,1.70
2018-12-14T12:50:33.911Z,1.70
2018-12-14T12:53:07.345Z,1.60
2018-12-14T12:55:41.100Z,1.60
2018-12-14T12:58:25.899Z,1.60
2018-12-14T13:01:12.999Z,1.60
2018-12-14T13:03:56.381Z,1.50
2018-12-14T13:09:36.820Z,1.50
2018-12-14T13:12:09.907Z,1.50
2018-12-14T13:14:42.995Z,1.40
2018-12-14T13:20:27.950Z,1.40
2018-12-14T13:59:16.343Z,1.30
2018-12-14T14:02:06.846Z,1.40
2018-12-14T14:04:43.927Z,1.40
2018-12-14T14:07:16.579Z,1.40
2018-12-14T14:09:49.934Z,1.40
2018-12-14T14:12:22.070Z,1.40
2018-12-14T14:14:54.364Z,1.30
2018-12-14T14:17:29.096Z,1.40
2018-12-14T14:20:01.749Z,1.30
2018-12-14T14:22:34.562Z,1.30
2018-12-14T14:25:07.444Z,1.30
2018-12-14T14:27:38.564Z,1.30
2018-12-14T14:30:11.237Z,1.30
2018-12-14T14:32:45.565Z,1.30
2018-12-14T14:35:16.242Z,1.30
2018-12-14T14:37:57.608Z,1.30
2018-12-14T14:40:30.728Z,1.30
2018-12-14T14:43:03.175Z,1.30
2018-12-14T14:45:36.390Z,1.30
2018-12-14T14:48:10.660Z,1.30
2018-12-14T14:50:41.198Z,1.30
2018-12-14T14:56:01.795Z,1.20
2018-12-14T14:58:41.232Z,1.20
2018-12-14T15:01:18.862Z,1.20
2018-12-14T15:03:55.395Z,1.20
2018-12-14T15:06:49.607Z,1.20
2018-12-14T15:12:22.782Z,1.20
2018-12-14T15:22:32.880Z,1.10
2018-12-14T15:25:16.661Z,1.10
2018-12-14T15:30:46.848Z,1.10
2018-12-14T15:33:31.407Z,1.10
2018-12-14T15:39:02.256Z,1.00
2018-12-14T15:41:48.292Z,1.10
2018-12-14T15:44:21.815Z,1.10
2018-12-14T15:46:54.144Z,1.10
2018-12-14T15:49:40.424Z,1.10
2018-12-14T15:52:15.794Z,1.10
2018-12-14T15:54:50.356Z,1.10
2018-12-14T15:57:20.707Z,1.10
2018-12-14T15:59:49.517Z,1.10
2018-12-14T16:02:18.253Z,1.10
2018-12-14T16:04:50.248Z,1.10
2018-12-14T16:07:22.875Z,1.10
2018-12-14T16:09:53.137Z,1.10
2018-12-14T16:12:21.663Z,1.10
2018-12-14T16:14:50.307Z,1.10
2018-12-14T16:17:18.973Z,1.20
2018-12-14T16:19:47.791Z,1.20
2018-12-14T16:25:14.167Z,1.20
2018-12-14T16:27:49.594Z,1.20
2018-12-14T16:30:21.874Z,1.20
2018-12-14T16:32:56.546Z,1.20
2018-12-14T16:35:31.009Z,1.20
2018-12-14T16:38:03.947Z,1.20
2018-12-14T16:40:40.079Z,1.20
2018-12-14T16:46:27.927Z,1.20
2018-12-14T16:49:13.206Z,1.20
2018-12-14T16:54:56.133Z,1.20
2018-12-14T17:00:41.577Z,1.20
2018-12-14T17:03:31.557Z,1.20
2018-12-14T17:06:14.918Z,1.20
2018-12-14T17:11:48.164Z,1.20
2018-12-14T17:14:28.003Z,1.20
2018-12-14T17:17:04.579Z,1.20
2018-12-14T17:19:53.755Z,1.20
2018-12-14T17:22:37.909Z,1.20
2018-12-14T17:25:20.388Z,1.20
2018-12-14T17:31:15.593Z,1.30
2018-12-14T17:39:40.970Z,1.30
2018-12-14T17:42:18.691Z,1.30
2018-12-14T17:45:04.431Z,1.30
2018-12-14T17:47:48.144Z,1.30
2018-12-14T17:50:26.463Z,1.30
2018-12-14T17:53:20.139Z,1.30
2018-12-14T17:56:07.787Z,1.30
2018-12-14T17:58:43.234Z,1.30
2018-12-14T18:01:45.130Z,1.30
2018-12-14T18:04:34.676Z,1.20
2018-12-14T18:07:07.452Z,1.20
2018-12-14T18:09:43.372Z,1.20
2018-12-14T18:12:26.074Z,1.20
2018-12-14T18:15:06.591Z,1.20
2018-12-14T18:20:26.563Z,1.20
2018-12-14T18:23:02.689Z,1.20
2018-12-14T18:25:36.106Z,1.20
2018-12-14T18:28:10.546Z,1.20
2018-12-14T18:30:43.926Z,1.20
2018-12-14T18:33:26.401Z,1.20
2018-12-14T18:36:01.780Z,1.20
2018-12-14T18:38:32.821Z,1.20
2018-12-14T18:41:13.789Z,1.20
2018-12-14T18:43:50.005Z,1.20
2018-12-14T18:46:24.312Z,1.20
2018-12-14T18:48:59.568Z,1.20
2018-12-14T18:51:32.267Z,1.20
2018-12-14T18:54:04.813Z,1.20
2018-12-14T18:56:39.088Z,1.20
2018-12-14T18:59:10.756Z,1.20
2018-12-14T19:01:45.095Z,1.20
2018-12-14T19:04:18.844Z,1.20
2018-12-14T19:06:51.046Z,1.20
2018-12-14T19:09:27.272Z,1.20
2018-12-14T19:12:04.696Z,1.20
2018-12-14T19:14:39.473Z,1.20
2018-12-14T19:17:12.648Z,1.20
2018-12-14T19:19:47.388Z,1.20
2018-12-14T19:22:24.730Z,1.20
2018-12-14T19:24:57.077Z,1.20
2018-12-14T19:27:31.438Z,1.20
2018-12-14T19:30:06.173Z,1.20
2018-12-14T19:32:39.942Z,1.20
2018-12-14T19:35:15.090Z,1.20
2018-12-14T19:37:48.270Z,1.20
2018-12-14T19:40:21.415Z,1.20
2018-12-14T19:42:56.542Z,1.20
2018-12-14T19:45:30.816Z,1.20
2018-12-14T19:48:13.299Z,1.20
2018-12-14T19:50:51.201Z,1.20
2018-12-14T19:53:26.243Z,1.20
2018-12-14T19:55:59.103Z,1.20
2018-12-14T19:58:33.897Z,1.20
2018-12-14T20:01:06.474Z,1.20
2018-12-14T20:03:43.117Z,1.20
2018-12-14T20:06:13.514Z,1.20
2018-12-14T20:08:56.397Z,1.20
2018-12-14T20:11:30.621Z,1.20
2018-12-14T20:14:05.202Z,1.20
2018-12-14T20:16:37.732Z,1.20
2018-12-14T20:19:10.849Z,1.20
2018-12-14T20:21:47.238Z,1.20
2018-12-14T20:24:24.709Z,1.20
2018-12-14T20:27:13.971Z,1.20
2018-12-14T20:29:54.975Z,1.20
2018-12-14T20:32:35.347Z,1.20
2018-12-14T20:35:10.078Z,1.20
2018-12-14T20:37:46.035Z,1.20
2018-12-14T20:40:19.794Z,1.20
2018-12-14T20:42:56.139Z,1.10
2018-12-14T20:45:32.948Z,1.10
2018-12-14T20:48:05.645Z,1.10
2018-12-14T20:50:40.697Z,1.10
2018-12-14T20:53:18.777Z,1.10
2018-12-14T20:55:52.898Z,1.10
2018-12-14T20:58:28.228Z,1.10
2018-12-14T21:01:01.564Z,1.00
2018-12-14T21:03:38.669Z,1.10
2018-12-14T21:08:51.006Z,1.10
2018-12-14T21:11:25.998Z,1.10
2018-12-14T21:13:58.321Z,1.10
2018-12-14T21:16:31.030Z,1.10
2018-12-14T21:19:02.080Z,1.00
2018-12-14T21:21:35.429Z,1.10
2018-12-14T21:24:08.918Z,1.10
2018-12-14T21:26:43.319Z,1.10
2018-12-14T21:32:28.549Z,1.10
2018-12-14T21:35:08.429Z,1.10
2018-12-14T21:37:47.375Z,1.10
2018-12-14T21:40:28.852Z,1.10
2018-12-14T21:43:01.897Z,1.10
2018-12-14T21:45:36.030Z,1.10
2018-12-14T21:48:08.647Z,1.10
2018-12-14T21:50:39.543Z,1.10
2018-12-14T21:53:14.538Z,1.10
2018-12-14T21:55:49.980Z,1.10
2018-12-14T21:58:22.387Z,1.10
2018-12-14T22:00:56.636Z,1.10
2018-12-14T22:03:33.317Z,1.10
2018-12-14T22:06:06.346Z,1.10
2018-12-14T22:08:39.851Z,1.10
2018-12-14T22:11:11.618Z,1.10
2018-12-14T22:13:44.851Z,1.10
2018-12-14T22:16:20.251Z,1.10
2018-12-14T22:21:40.284Z,1.10
2018-12-14T22:24:21.559Z,1.10
2018-12-14T22:27:04.272Z,1.10
2018-12-14T22:32:47.588Z,1.10
2018-12-14T22:41:06.611Z,1.00
2018-12-14T22:46:37.473Z,1.00
